Time;durP1;ratioP1;P1;durP2;ratioP2;P2;SDS_P1;SDS_P2;PMS_P1;PMS_P2;Temp;Humidity;BMP_temperature;BMP_pressure;BME280_temperature;BME280_humidity;BME280_pressure;Samples;Min_cycle;Max_cycle;Signal;HPM_P1;HPM_P2
2024/02/08 00:01:52;;;;;;;1.47;1.37;;;13.40;69.60;;;;;;5044168;28;20514;-63
2024/02/08 00:04:17;;;;;;;2.70;1.30;;;13.50;69.70;;;;;;5044630;28;20439;-61
2024/02/08 00:06:43;;;;;;;1.53;1.43;;;13.40;69.50;;;;;;5041454;28;20223;-64
2024/02/08 00:09:09;;;;;;;1.23;1.13;;;13.50;69.10;;;;;;5035541;28;20272;-62
2024/02/08 00:11:34;;;;;;;1.43;1.33;;;13.20;69.30;;;;;;5037691;28;20643;-64
2024/02/08 00:14:00;;;;;;;1.50;1.23;;;13.20;70.60;;;;;;5039531;28;20184;-64
2024/02/08 00:16:27;;;;;;;2.07;1.57;;;13.30;70.30;;;;;;5040335;28;20216;-64
2024/02/08 00:18:54;;;;;;;1.20;1.10;;;13.30;70.10;;;;;;5040056;28;20427;-63
2024/02/08 00:21:20;;;;;;;1.17;1.00;;;13.40;69.60;;;;;;5041492;28;20809;-65
2024/02/08 00:23:45;;;;;;;1.83;1.30;;;13.20;70.00;;;;;;5042055;28;20442;-63
2024/02/08 00:26:11;;;;;;;1.27;1.17;;;13.00;70.90;;;;;;5041331;28;20212;-63
2024/02/08 00:28:39;;;;;;;3.67;1.03;;;12.80;71.90;;;;;;5038104;28;20299;-64
2024/02/08 00:31:06;;;;;;;1.00;0.83;;;12.80;72.60;;;;;;5042272;28;20578;-62
2024/02/08 00:33:33;;;;;;;1.83;1.10;;;13.00;72.30;;;;;;5043143;28;20425;-62
2024/02/08 00:36:00;;;;;;;1.77;1.10;;;13.10;71.50;;;;;;5041360;28;20467;-64
2024/02/08 00:38:26;;;;;;;1.10;0.90;;;13.20;70.70;;;;;;5042159;28;20426;-65
2024/02/08 00:40:52;;;;;;;2.97;1.17;;;13.00;71.20;;;;;;5041376;28;20443;-64
2024/02/08 00:43:19;;;;;;;0.93;0.83;;;13.20;71.60;;;;;;5038139;28;20439;-64
2024/02/08 00:45:46;;;;;;;1.57;0.70;;;13.20;71.30;;;;;;5040416;28;20203;-64
2024/02/08 00:48:11;;;;;;;1.13;0.83;;;13.10;71.10;;;;;;5042832;28;20471;-62
2024/02/08 00:50:37;;;;;;;0.70;0.70;;;13.10;71.50;;;;;;5039626;28;20432;-65
2024/02/08 00:53:05;;;;;;;1.10;0.90;;;12.90;71.80;;;;;;5042777;28;20188;-64
2024/02/08 00:55:34;;;;;;;0.70;0.70;;;13.00;72.00;;;;;;5042022;28;20321;-64
2024/02/08 00:58:00;;;;;;;1.47;1.20;;;13.00;71.80;;;;;;5038196;28;20481;-63
2024/02/08 01:00:28;;;;;;;1.20;1.00;;;13.00;72.20;;;;;;5043186;28;20454;-64
2024/02/08 01:02:54;;;;;;;0.83;0.83;;;13.00;72.30;;;;;;5041570;28;20459;-62
2024/02/08 01:05:20;;;;;;;0.97;0.83;;;12.80;73.00;;;;;;5040878;28;20435;-64
2024/02/08 01:07:47;;;;;;;1.13;0.90;;;13.10;72.90;;;;;;5038750;28;20474;-64
2024/02/08 01:10:12;;;;;;;1.33;0.70;;;13.20;71.60;;;;;;5040813;28;20443;-64
2024/02/08 01:12:38;;;;;;;1.53;0.80;;;13.20;72.60;;;;;;5042762;28;20496;-64
2024/02/08 01:15:04;;;;;;;0.97;0.87;;;13.10;71.90;;;;;;5043317;28;20181;-63
2024/02/08 01:17:32;;;;;;;1.17;0.60;;;13.30;71.70;;;;;;5047487;28;20825;-64
2024/02/08 01:20:00;;;;;;;0.80;0.80;;;13.30;71.40;;;;;;5046976;28;20431;-63
2024/02/08 01:22:27;;;;;;;0.60;0.60;;;13.00;71.80;;;;;;5041375;28;20434;-63
2024/02/08 01:24:52;;;;;;;0.70;0.70;;;13.10;72.60;;;;;;5038823;28;20550;-64
2024/02/08 01:27:20;;;;;;;1.13;0.70;;;13.00;73.00;;;;;;5045423;28;20508;-63
2024/02/08 01:29:47;;;;;;;1.10;1.00;;;13.20;72.70;;;;;;5041179;28;20215;-64
2024/02/08 01:32:15;;;;;;;1.03;0.70;;;13.00;72.70;;;;;;5040250;28;20444;-63
2024/02/08 01:34:41;;;;;;;0.80;0.70;;;13.00;72.70;;;;;;5041337;28;20446;-64
2024/02/08 01:37:07;;;;;;;0.70;0.70;;;13.00;72.70;;;;;;5045400;28;20439;-63
2024/02/08 01:39:33;;;;;;;0.70;0.60;;;13.10;72.90;;;;;;5045880;28;20790;-64
2024/02/08 01:41:59;;;;;;;0.70;0.70;;;13.00;73.10;;;;;;5044877;28;20914;-64
2024/02/08 01:44:24;;;;;;;0.60;0.60;;;13.10;73.10;;;;;;5035941;28;20462;-64
2024/02/08 01:46:50;;;;;;;0.60;0.60;;;13.00;72.70;;;;;;5035900;28;20593;-64
2024/02/08 01:49:26;;;;;;;1.63;0.80;;;12.90;73.40;;;;;;5035771;28;20602;-64
2024/02/08 01:51:59;;;;;;;0.60;0.60;;;13.00;74.00;;;;;;5039790;28;20196;-64
2024/02/08 01:54:26;;;;;;;0.60;0.60;;;13.10;73.20;;;;;;5034881;28;20517;-64
2024/02/08 01:56:52;;;;;;;0.70;0.60;;;13.00;73.30;;;;;;5038084;28;20467;-65
2024/02/08 01:59:19;;;;;;;0.60;0.60;;;13.30;72.70;;;;;;5040267;28;20445;-64
2024/02/08 02:01:50;;;;;;;0.77;0.60;;;13.50;71.90;;;;;;5041237;28;21652;-64
2024/02/08 02:04:19;;;;;;;0.67;0.63;;;13.50;71.50;;;;;;5040183;28;20453;-64
2024/02/08 02:06:45;;;;;;;0.87;0.50;;;13.50;71.30;;;;;;5040175;28;20467;-63
2024/02/08 02:09:23;;;;;;;0.60;0.57;;;13.40;71.40;;;;;;5040714;28;20551;-64
2024/02/08 02:12:01;;;;;;;1.30;0.80;;;13.20;72.00;;;;;;5040891;28;20466;-61
2024/02/08 02:14:31;;;;;;;0.87;0.80;;;13.20;73.40;;;;;;5039907;28;20470;-64
2024/02/08 02:17:15;;;;;;;0.50;0.50;;;13.10;72.60;;;;;;5038554;28;20468;-63
2024/02/08 02:19:41;;;;;;;0.70;0.70;;;13.10;73.00;;;;;;5038477;28;20433;-63
2024/02/08 02:22:09;;;;;;;0.70;0.70;;;13.20;73.30;;;;;;5040335;28;20977;-62
2024/02/08 02:24:42;;;;;;;0.60;0.60;;;13.20;73.00;;;;;;5037839;28;20442;-64
2024/02/08 02:27:12;;;;;;;1.70;0.83;;;13.20;72.80;;;;;;5035674;28;20455;-64
2024/02/08 02:29:38;;;;;;;0.53;0.53;;;13.10;73.20;;;;;;5036443;28;20474;-64
2024/02/08 02:32:06;;;;;;;1.10;1.00;;;13.10;74.30;;;;;;5038114;28;20581;-64
2024/02/08 02:34:34;;;;;;;0.77;0.70;;;13.10;73.70;;;;;;5039654;28;20490;-64
2024/02/08 02:37:00;;;;;;;0.70;0.60;;;13.30;72.90;;;;;;5041722;28;20458;-63
2024/02/08 02:39:27;;;;;;;0.70;0.70;;;13.30;73.20;;;;;;5040345;28;20415;-64
2024/02/08 02:41:53;;;;;;;0.77;0.77;;;13.40;72.40;;;;;;5042615;28;20188;-62
2024/02/08 02:44:20;;;;;;;1.27;0.60;;;13.40;72.20;;;;;;5036777;28;20434;-65
2024/02/08 02:46:45;;;;;;;1.10;0.67;;;13.30;72.20;;;;;;5038453;28;20207;-64
2024/02/08 02:49:11;;;;;;;0.80;0.70;;;13.30;72.30;;;;;;5040273;28;20467;-63
2024/02/08 02:51:36;;;;;;;3.33;0.77;;;13.30;72.70;;;;;;5032055;28;20197;-64
2024/02/08 02:54:02;;;;;;;0.60;0.60;;;13.30;72.70;;;;;;5040753;28;20189;-64
2024/02/08 02:56:28;;;;;;;0.70;0.60;;;13.50;73.20;;;;;;5036737;28;20212;-63
2024/02/08 02:58:54;;;;;;;1.23;0.70;;;13.60;71.40;;;;;;5039307;28;20821;-64
2024/02/08 03:01:21;;;;;;;0.83;0.70;;;13.40;72.00;;;;;;5036914;28;20204;-65
2024/02/08 03:03:47;;;;;;;0.67;0.60;;;13.80;71.60;;;;;;5039123;28;20508;-63
2024/02/08 03:06:16;;;;;;;0.70;0.60;;;13.70;71.10;;;;;;5033220;28;20469;-63
2024/02/08 03:08:46;;;;;;;0.70;0.60;;;13.40;72.00;;;;;;5040239;28;20561;-65
2024/02/08 03:11:15;;;;;;;0.67;0.67;;;13.40;72.60;;;;;;5041764;28;20431;-63
2024/02/08 03:13:42;;;;;;;0.77;0.77;;;13.70;71.80;;;;;;5037882;28;22515;-65
2024/02/08 03:16:14;;;;;;;1.70;0.73;;;13.70;71.10;;;;;;5042216;28;20474;-64
2024/02/08 03:18:43;;;;;;;0.80;0.70;;;13.60;71.50;;;;;;5043825;28;20435;-64
2024/02/08 03:21:21;;;;;;;0.60;0.60;;;13.50;71.60;;;;;;5040811;28;20942;-64
2024/02/08 03:23:48;;;;;;;0.80;0.80;;;13.30;72.20;;;;;;5041528;28;21046;-65
2024/02/08 03:26:17;;;;;;;0.90;0.80;;;13.30;72.70;;;;;;5041713;28;20529;-62
2024/02/08 03:28:43;;;;;;;0.80;0.73;;;13.50;72.70;;;;;;5042019;28;20628;-64
2024/02/08 03:31:09;;;;;;;2.73;1.00;;;13.70;72.50;;;;;;5040001;28;20538;-64
2024/02/08 03:33:37;;;;;;;0.80;0.70;;;13.70;71.20;;;;;;5043594;28;20553;-63
2024/02/08 03:36:09;;;;;;;0.90;0.90;;;13.60;71.50;;;;;;5041040;28;20211;-65
2024/02/08 03:38:35;;;;;;;1.10;0.83;;;13.50;71.40;;;;;;5042932;28;20434;-64
2024/02/08 03:41:01;;;;;;;0.50;0.50;;;13.40;71.80;;;;;;5048664;28;20437;-63
2024/02/08 03:43:27;;;;;;;0.73;0.67;;;13.40;72.10;;;;;;5049280;28;20184;-65
2024/02/08 03:45:56;;;;;;;0.70;0.63;;;13.50;72.50;;;;;;5046250;28;20512;-64
2024/02/08 03:48:24;;;;;;;0.70;0.70;;;13.50;71.90;;;;;;5050618;28;20300;-64
2024/02/08 03:50:50;;;;;;;0.60;0.60;;;13.60;71.60;;;;;;5045641;28;20419;-64
2024/02/08 03:53:17;;;;;;;0.83;0.60;;;13.60;71.30;;;;;;5047784;28;20454;-63
2024/02/08 03:55:44;;;;;;;0.60;0.60;;;13.70;71.30;;;;;;5047064;28;20218;-64
2024/02/08 03:58:10;;;;;;;0.73;0.73;;;13.40;71.60;;;;;;5047169;28;22627;-64
2024/02/08 04:00:36;;;;;;;0.70;0.70;;;13.50;72.30;;;;;;5051533;28;20945;-64
2024/02/08 04:03:06;;;;;;;0.90;0.70;;;13.50;72.00;;;;;;5041051;28;20454;-64
2024/02/08 04:08:42;;;;;;;0.60;0.60;;;13.70;71.40;;;;;;5047966;28;20459;-64
2024/02/08 04:54:54;;;;;;;1.13;0.80;;;13.80;72.90;;;;;;5041828;28;20472;-62
2024/02/08 04:57:19;;;;;;;0.50;0.50;;;13.70;72.90;;;;;;5042133;28;20458;-64
2024/02/08 04:59:45;;;;;;;0.83;0.73;;;13.70;72.80;;;;;;5042841;28;20845;-64
2024/02/08 05:02:13;;;;;;;1.03;0.90;;;13.70;73.50;;;;;;5040003;28;20200;-65
2024/02/08 05:04:39;;;;;;;0.70;0.60;;;13.70;73.00;;;;;;5041198;28;20189;-64
2024/02/08 05:07:06;;;;;;;0.70;0.70;;;13.90;72.80;;;;;;5041090;28;20831;-63
2024/02/08 05:09:32;;;;;;;0.80;0.80;;;13.90;72.50;;;;;;5041267;28;20227;-63
2024/02/08 05:11:59;;;;;;;1.90;0.80;;;13.90;72.40;;;;;;5041606;28;21017;-64
2024/02/08 05:14:26;;;;;;;0.63;0.53;;;13.70;73.30;;;;;;5042003;28;20954;-63
2024/02/08 05:16:54;;;;;;;0.90;0.90;;;13.90;73.60;;;;;;5044724;28;20490;-64
2024/02/08 05:19:26;;;;;;;0.70;0.70;;;13.80;73.50;;;;;;5043924;28;20453;-65
2024/02/08 05:21:58;;;;;;;1.33;0.60;;;13.90;73.20;;;;;;5038437;28;20804;-64
2024/02/08 05:24:26;;;;;;;1.83;0.60;;;13.80;73.30;;;;;;5037324;28;20436;-65
2024/02/08 05:26:53;;;;;;;0.50;0.50;;;13.90;73.90;;;;;;5037077;28;20428;-63
2024/02/08 05:29:21;;;;;;;0.70;0.70;;;13.70;74.80;;;;;;5039996;28;20466;-64
2024/02/08 05:31:50;;;;;;;1.80;0.80;;;13.70;75.90;;;;;;5038546;28;20439;-63
2024/02/08 05:34:18;;;;;;;0.63;0.63;;;13.60;76.30;;;;;;5043548;28;20488;-64
2024/02/08 05:36:44;;;;;;;0.70;0.70;;;13.80;76.20;;;;;;5044481;28;20470;-64
2024/02/08 05:39:13;;;;;;;1.23;0.57;;;13.70;75.50;;;;;;5039329;28;20452;-64
2024/02/08 05:41:44;;;;;;;0.70;0.70;;;13.80;75.70;;;;;;5040274;28;20454;-64
2024/02/08 05:44:12;;;;;;;0.67;0.60;;;14.00;75.10;;;;;;5044208;28;20462;-63
2024/02/08 05:46:38;;;;;;;0.70;0.60;;;13.90;75.00;;;;;;5039809;28;20458;-63
2024/02/08 05:49:13;;;;;;;0.80;0.70;;;13.50;76.20;;;;;;5040533;28;20880;-64
2024/02/08 05:51:46;;;;;;;1.10;0.87;;;13.50;77.20;;;;;;5037745;28;20214;-65
2024/02/08 05:54:16;;;;;;;2.30;0.80;;;13.50;77.30;;;;;;5039704;28;20424;-64
2024/02/08 05:56:43;;;;;;;0.80;0.80;;;13.50;78.10;;;;;;5037312;28;20462;-64
2024/02/08 05:59:17;;;;;;;0.77;0.73;;;13.50;77.80;;;;;;5042275;28;20446;-64
2024/02/08 06:01:47;;;;;;;0.80;0.80;;;13.50;78.30;;;;;;5041989;28;20462;-65
2024/02/08 06:04:24;;;;;;;1.10;0.90;;;13.70;77.80;;;;;;5037631;28;20474;-63
2024/02/08 06:07:01;;;;;;;1.00;0.90;;;13.70;77.40;;;;;;5039220;28;20524;-64
2024/02/08 06:12:16;;;;;;;0.60;0.60;;;13.60;78.00;;;;;;5036551;28;20588;-63
2024/02/08 06:14:42;;;;;;;1.67;0.90;;;13.40;78.70;;;;;;5035653;28;21045;-62
2024/02/08 06:17:09;;;;;;;1.20;0.93;;;13.20;79.40;;;;;;5038220;28;20442;-64
2024/02/08 06:19:37;;;;;;;0.93;0.70;;;13.40;80.00;;;;;;5040612;28;20447;-64
2024/02/08 06:22:22;;;;;;;0.80;0.70;;;13.50;80.10;;;;;;5039052;28;20525;-64
2024/02/08 06:24:56;;;;;;;1.13;1.10;;;13.40;80.40;;;;;;5040169;28;20453;-63
2024/02/08 06:27:33;;;;;;;1.33;0.90;;;13.40;80.40;;;;;;5039672;28;20534;-64
2024/02/08 06:30:00;;;;;;;2.93;0.80;;;13.40;80.70;;;;;;5040493;28;20544;-64
2024/02/08 06:35:09;;;;;;;2.90;2.30;;;13.30;80.80;;;;;;5044532;28;20470;-63
2024/02/08 06:37:44;;;;;;;1.03;0.80;;;13.30;81.00;;;;;;5038251;28;20467;-64
2024/02/08 07:37:36;;;;;;;1.27;1.17;;;13.80;80.90;;;;;;5038062;28;20451;-64
2024/02/08 07:40:24;;;;;;;1.53;0.83;;;13.70;80.50;;;;;;5042037;28;20435;-64
2024/02/08 07:46:03;;;;;;;1.63;0.90;;;13.80;79.80;;;;;;5036298;28;20832;-65
2024/02/08 07:48:39;;;;;;;1.50;0.93;;;13.80;80.10;;;;;;5034912;28;20509;-64
2024/02/08 07:51:05;;;;;;;0.80;0.80;;;13.80;80.20;;;;;;5039685;28;20435;-64
2024/02/08 07:53:51;;;;;;;0.97;0.80;;;13.60;80.80;;;;;;5036699;28;20434;-62
2024/02/08 07:59:04;;;;;;;1.17;1.10;;;13.80;80.40;;;;;;5037795;28;20431;-62
2024/02/08 08:01:43;;;;;;;0.97;0.70;;;13.80;80.40;;;;;;5039799;28;21008;-64
2024/02/08 08:04:09;;;;;;;0.87;0.87;;;13.70;80.30;;;;;;5036854;28;20433;-64
2024/02/08 08:06:46;;;;;;;1.07;0.80;;;13.90;80.60;;;;;;5042318;28;20464;-62
2024/02/08 08:09:19;;;;;;;1.37;0.80;;;13.80;79.80;;;;;;5045593;28;21062;-63
2024/02/08 08:11:49;;;;;;;0.83;0.83;;;13.90;80.10;;;;;;5037396;28;20444;-62
2024/02/08 08:19:41;;;;;;;1.00;0.90;;;14.10;79.00;;;;;;5036897;28;20443;-63
2024/02/08 08:22:50;;;;;;;1.57;0.67;;;14.10;78.90;;;;;;5041482;28;20641;-62
2024/02/08 08:27:47;;;;;;;1.77;1.10;;;14.00;79.40;;;;;;5031882;28;20464;-61
2024/02/08 08:30:27;;;;;;;1.60;1.00;;;14.20;79.30;;;;;;5041633;28;20470;-62
2024/02/08 08:33:08;;;;;;;2.20;1.00;;;14.20;78.80;;;;;;5047138;28;20422;-63
2024/02/08 08:35:47;;;;;;;1.30;1.00;;;14.20;78.50;;;;;;5041033;28;20942;-64
2024/02/08 08:40:48;;;;;;;0.97;0.97;;;14.30;78.00;;;;;;5041111;28;20525;-63
2024/02/08 08:43:24;;;;;;;1.43;0.87;;;14.00;78.70;;;;;;5037383;28;20455;-62
2024/02/08 08:45:51;;;;;;;1.77;0.80;;;14.20;79.30;;;;;;5035235;28;20466;-62
2024/02/08 08:48:18;;;;;;;1.00;0.90;;;14.20;79.20;;;;;;5040308;28;20440;-63
2024/02/08 08:50:50;;;;;;;1.87;0.80;;;14.20;78.50;;;;;;5037237;28;20923;-62
2024/02/08 08:53:19;;;;;;;1.20;1.10;;;14.40;78.30;;;;;;5039001;28;20444;-60
2024/02/08 08:55:50;;;;;;;0.80;0.73;;;14.40;77.90;;;;;;5037457;28;20457;-63
2024/02/08 08:58:15;;;;;;;0.80;0.80;;;14.10;78.10;;;;;;5034737;28;20959;-63
2024/02/08 09:00:46;;;;;;;1.10;1.00;;;14.20;80.00;;;;;;5042109;28;20446;-63
2024/02/08 09:03:27;;;;;;;0.60;0.60;;;14.10;78.80;;;;;;5036084;28;20844;-63
2024/02/08 09:05:57;;;;;;;1.10;1.00;;;14.20;78.50;;;;;;5038692;28;20462;-58
2024/02/08 09:08:25;;;;;;;2.20;0.93;;;14.10;78.70;;;;;;5039739;28;20471;-60
2024/02/08 09:10:51;;;;;;;0.77;0.77;;;14.20;79.20;;;;;;5040094;28;20424;-60
2024/02/08 09:13:18;;;;;;;1.83;1.17;;;14.20;78.60;;;;;;5032905;28;20497;-61
2024/02/08 09:16:29;;;;;;;0.87;0.87;;;14.10;78.90;;;;;;5035466;28;20561;-61
2024/02/08 09:21:32;;;;;;;1.17;1.07;;;14.10;79.10;;;;;;5039683;28;20435;-61
2024/02/08 09:24:12;;;;;;;1.93;0.90;;;14.10;79.70;;;;;;5040339;28;20442;-61
2024/02/08 09:26:48;;;;;;;0.90;0.90;;;14.10;80.00;;;;;;5034222;28;20460;-61
2024/02/08 09:29:26;;;;;;;1.13;1.03;;;14.20;79.70;;;;;;5042944;28;20483;-61
2024/02/08 09:31:59;;;;;;;1.63;0.60;;;14.20;79.30;;;;;;5037551;28;20454;-62
2024/02/08 09:34:38;;;;;;;1.67;0.67;;;14.10;79.70;;;;;;5034098;28;20427;-62
2024/02/08 09:37:07;;;;;;;0.97;0.87;;;14.10;79.30;;;;;;5037407;28;20454;-63
2024/02/08 09:42:26;;;;;;;1.43;0.97;;;14.30;79.70;;;;;;5040396;28;20439;-63
2024/02/08 09:45:24;;;;;;;1.37;0.97;;;14.50;78.50;;;;;;5048006;28;20446;-63
2024/02/08 09:47:52;;;;;;;0.70;0.70;;;14.40;78.90;;;;;;5034393;28;20447;-63
2024/02/08 09:50:31;;;;;;;0.80;0.80;;;14.40;77.80;;;;;;5031326;28;20546;-63
2024/02/08 09:53:07;;;;;;;1.70;0.70;;;14.40;78.90;;;;;;5035796;28;20419;-61
2024/02/08 09:55:32;;;;;;;1.17;1.07;;;14.70;78.00;;;;;;5037454;28;20462;-63
2024/02/08 09:58:04;;;;;;;0.80;0.80;;;14.80;76.60;;;;;;5039857;28;20427;-63
2024/02/08 10:00:34;;;;;;;1.23;0.97;;;14.70;76.00;;;;;;5039720;28;20196;-64
2024/02/08 10:03:04;;;;;;;0.80;0.80;;;14.60;76.80;;;;;;5037245;28;20515;-63
2024/02/08 10:05:57;;;;;;;0.60;0.60;;;14.50;77.70;;;;;;5031188;28;20451;-63
2024/02/08 10:08:31;;;;;;;0.80;0.80;;;14.50;77.30;;;;;;5033640;28;20469;-62
2024/02/08 10:11:11;;;;;;;0.97;0.70;;;14.40;77.70;;;;;;5031265;28;20474;-63
2024/02/08 10:13:53;;;;;;;0.80;0.80;;;14.20;77.20;;;;;;5032336;28;20786;-63
2024/02/08 10:16:29;;;;;;;0.80;0.80;;;14.10;78.70;;;;;;5033785;28;20981;-62
2024/02/08 10:19:03;;;;;;;1.07;0.80;;;14.30;78.50;;;;;;5036938;28;20416;-63
2024/02/08 10:21:29;;;;;;;0.80;0.80;;;14.70;76.60;;;;;;5040325;28;20443;-64
2024/02/08 10:23:59;;;;;;;0.97;0.73;;;14.40;75.30;;;;;;5039917;28;20522;-63
2024/02/08 10:26:27;;;;;;;0.70;0.70;;;14.30;76.50;;;;;;5034142;28;20471;-63
2024/02/08 10:28:55;;;;;;;0.90;0.77;;;14.30;76.70;;;;;;5040040;28;20988;-62
2024/02/08 10:31:24;;;;;;;1.57;0.70;;;14.40;76.00;;;;;;5036624;28;20428;-63
2024/02/08 10:33:57;;;;;;;1.10;1.00;;;14.60;76.40;;;;;;5034974;28;20423;-63
2024/02/08 10:36:31;;;;;;;1.67;0.80;;;14.60;75.80;;;;;;5038126;28;20989;-62
2024/02/08 10:39:07;;;;;;;0.87;0.87;;;14.70;74.70;;;;;;5043543;28;20447;-63
2024/02/08 10:44:24;;;;;;;0.70;0.70;;;14.50;75.90;;;;;;5039923;28;20468;-63
2024/02/08 10:46:55;;;;;;;1.33;0.60;;;14.60;74.80;;;;;;5042046;28;20443;-62
2024/02/08 10:49:22;;;;;;;0.80;0.80;;;14.70;75.10;;;;;;5043483;28;21145;-63
2024/02/08 10:51:49;;;;;;;0.67;0.67;;;14.80;74.70;;;;;;5043715;28;20435;-63
2024/02/08 10:54:16;;;;;;;0.83;0.70;;;14.90;74.00;;;;;;5036652;28;20439;-63
2024/02/08 10:56:48;;;;;;;1.73;0.80;;;14.90;73.10;;;;;;5035502;28;20466;-62
2024/02/08 10:59:20;;;;;;;0.70;0.70;;;14.90;73.30;;;;;;5031055;28;20444;-63
2024/02/08 11:04:20;;;;;;;0.77;0.70;;;14.60;76.00;;;;;;5038743;28;20478;-63
2024/02/08 11:07:06;;;;;;;0.90;0.70;;;14.40;76.30;;;;;;5037734;28;20862;-62
2024/02/08 11:09:33;;;;;;;0.80;0.80;;;14.30;77.70;;;;;;5035995;28;20462;-61
2024/02/08 11:12:06;;;;;;;0.70;0.70;;;14.20;77.90;;;;;;5033424;28;20448;-63
2024/02/08 11:14:45;;;;;;;0.80;0.70;;;14.40;78.40;;;;;;5038517;28;20442;-63
2024/02/08 11:17:20;;;;;;;0.70;0.70;;;14.40;78.90;;;;;;5037627;28;20431;-62
2024/02/08 11:19:56;;;;;;;1.90;0.90;;;14.30;79.70;;;;;;5036646;28;20497;-62
2024/02/08 11:22:39;;;;;;;1.57;0.70;;;14.30;80.10;;;;;;5041628;28;20926;-63
2024/02/08 11:25:19;;;;;;;0.80;0.80;;;14.40;79.70;;;;;;5039519;28;20454;-63
2024/02/08 11:27:48;;;;;;;1.13;1.03;;;14.50;78.60;;;;;;5039682;28;20459;-63
2024/02/08 11:30:32;;;;;;;0.90;0.70;;;14.40;78.70;;;;;;5041830;28;20890;-61
2024/02/08 11:33:01;;;;;;;0.60;0.60;;;14.20;77.90;;;;;;5041599;28;20950;-63
2024/02/08 11:35:35;;;;;;;1.00;0.90;;;14.30;79.70;;;;;;5044423;28;21080;-63
2024/02/08 11:38:12;;;;;;;1.00;0.90;;;14.40;77.60;;;;;;5042136;28;20451;-62
2024/02/08 11:40:37;;;;;;;1.30;0.90;;;14.80;77.10;;;;;;5042870;28;20478;-63
2024/02/08 11:43:06;;;;;;;0.90;0.80;;;14.90;75.10;;;;;;5051466;28;20455;-62
2024/02/08 11:45:35;;;;;;;1.17;0.90;;;14.80;75.60;;;;;;5047108;28;20189;-61
2024/02/08 11:48:07;;;;;;;0.80;0.80;;;14.90;75.60;;;;;;5044815;28;20500;-63
2024/02/08 11:50:36;;;;;;;1.10;1.00;;;14.80;75.60;;;;;;5034863;28;20891;-63
2024/02/08 11:53:04;;;;;;;1.00;0.90;;;14.90;75.50;;;;;;5041048;28;20873;-63
2024/02/08 11:55:32;;;;;;;0.97;0.80;;;14.80;75.00;;;;;;5046304;28;20428;-63
2024/02/08 11:57:58;;;;;;;1.80;1.30;;;15.10;74.80;;;;;;5042018;28;20447;-63
2024/02/08 12:00:24;;;;;;;2.20;1.67;;;15.10;74.50;;;;;;5040123;28;20442;-62
2024/02/08 12:02:59;;;;;;;0.87;0.87;;;15.30;74.00;;;;;;5042890;28;20522;-64
2024/02/08 12:05:26;;;;;;;2.13;1.50;;;15.10;73.40;;;;;;5039199;28;20894;-66
2024/02/08 12:07:52;;;;;;;2.07;1.33;;;15.10;74.10;;;;;;5045440;28;20416;-67
2024/02/08 12:10:22;;;;;;;2.10;1.13;;;15.10;73.60;;;;;;5043378;28;20545;-65
2024/02/08 12:12:54;;;;;;;1.20;1.10;;;15.10;72.50;;;;;;5039054;28;20436;-66
2024/02/08 12:15:21;;;;;;;1.60;0.93;;;14.80;72.40;;;;;;5043587;28;20466;-66
2024/02/08 12:18:05;;;;;;;1.43;1.00;;;14.80;73.70;;;;;;5043320;28;20434;-68
2024/02/08 12:20:30;;;;;;;4.60;0.97;;;15.00;73.00;;;;;;5040765;28;20444;-67
2024/02/08 12:22:56;;;;;;;3.60;1.17;;;15.30;72.20;;;;;;5041708;28;20526;-66
2024/02/08 12:25:21;;;;;;;5.10;1.03;;;15.20;71.90;;;;;;5036204;28;20180;-66
2024/02/08 12:27:51;;;;;;;1.37;1.27;;;15.00;71.20;;;;;;5044056;28;20212;-67
2024/02/08 12:30:21;;;;;;;1.43;0.80;;;15.00;71.10;;;;;;5045644;28;20208;-66
2024/02/08 12:32:50;;;;;;;2.77;1.33;;;15.10;71.30;;;;;;5040038;28;20427;-68
2024/02/08 12:35:20;;;;;;;1.80;1.20;;;15.00;71.40;;;;;;5047504;28;20471;-67
2024/02/08 12:37:48;;;;;;;2.50;1.03;;;15.10;71.70;;;;;;5037423;28;20463;-67
2024/02/08 12:40:16;;;;;;;1.73;0.93;;;14.90;71.30;;;;;;5046524;28;20457;-67
2024/02/08 12:42:42;;;;;;;2.80;1.00;;;15.00;72.30;;;;;;5046385;28;20560;-68
2024/02/08 12:45:11;;;;;;;2.13;0.93;;;15.00;71.30;;;;;;5039439;28;20891;-67
2024/02/08 12:47:41;;;;;;;3.90;1.10;;;14.90;71.20;;;;;;5036967;28;20436;-68
2024/02/08 12:50:09;;;;;;;2.40;0.80;;;14.90;71.90;;;;;;5050498;28;20502;-67
2024/02/08 12:52:41;;;;;;;5.27;1.57;;;15.00;71.80;;;;;;5041282;28;20452;-68
2024/02/08 12:55:13;;;;;;;1.93;1.03;;;15.10;71.70;;;;;;5040597;28;20902;-67
2024/02/08 12:57:40;;;;;;;2.17;1.10;;;15.10;71.20;;;;;;5033573;28;20527;-67
2024/02/08 13:00:13;;;;;;;5.20;1.47;;;15.10;70.60;;;;;;5040697;28;20958;-66
2024/02/08 13:02:40;;;;;;;2.60;1.23;;;15.30;69.50;;;;;;5040496;28;20458;-68
2024/02/08 13:05:06;;;;;;;1.90;1.13;;;15.20;69.60;;;;;;5039631;28;20418;-67
2024/02/08 13:07:32;;;;;;;2.23;1.00;;;15.10;69.70;;;;;;5036588;28;20479;-67
2024/02/08 13:10:14;;;;;;;5.03;1.40;;;15.20;69.40;;;;;;5043250;28;20466;-67
2024/02/08 13:12:40;;;;;;;2.00;1.23;;;15.40;68.60;;;;;;5047386;28;20196;-68
2024/02/08 13:15:06;;;;;;;4.50;1.50;;;15.50;68.10;;;;;;5035599;28;20464;-68
2024/02/08 13:17:33;;;;;;;3.57;1.90;;;15.70;67.80;;;;;;5032469;28;20305;-66
2024/02/08 13:20:00;;;;;;;4.20;1.40;;;15.80;66.70;;;;;;5042036;28;20807;-70
2024/02/08 13:22:31;;;;;;;6.93;2.63;;;15.50;65.70;;;;;;5040045;28;20432;-69
2024/02/08 13:24:57;;;;;;;2.93;1.60;;;15.40;66.20;;;;;;5037634;28;21002;-66
2024/02/08 13:27:28;;;;;;;5.20;2.03;;;15.40;65.00;;;;;;5041484;28;20485;-69
2024/02/08 13:29:55;;;;;;;4.60;1.40;;;15.20;65.60;;;;;;5035823;28;20476;-68
2024/02/08 13:32:25;;;;;;;5.23;1.80;;;15.40;65.90;;;;;;5040715;28;20469;-65
2024/02/08 13:34:55;;;;;;;4.10;2.00;;;15.70;65.40;;;;;;5038302;28;20447;-71
2024/02/08 13:37:22;;;;;;;7.47;1.90;;;15.80;64.10;;;;;;5039106;28;20456;-66
2024/02/08 13:39:59;;;;;;;4.77;1.80;;;15.60;63.70;;;;;;5041713;28;20453;-66
2024/02/08 13:42:28;;;;;;;10.57;2.50;;;15.50;63.50;;;;;;5034976;28;20788;-67
2024/02/08 13:44:58;;;;;;;4.80;1.77;;;15.40;63.90;;;;;;5037674;28;20443;-70
2024/02/08 13:47:27;;;;;;;6.20;2.50;;;15.40;64.00;;;;;;5034043;28;20491;-68
2024/02/08 13:49:54;;;;;;;7.00;2.37;;;15.60;63.70;;;;;;5036884;28;21002;-72
2024/02/08 13:52:20;;;;;;;7.10;2.43;;;15.80;63.40;;;;;;5035464;28;22600;-69
2024/02/08 13:54:48;;;;;;;6.77;3.83;;;15.90;62.90;;;;;;5043368;28;20561;-69
2024/02/08 13:57:14;;;;;;;6.80;2.40;;;16.10;62.40;;;;;;5039133;28;20472;-66
2024/02/08 13:59:46;;;;;;;12.70;2.60;;;15.90;61.40;;;;;;5042354;28;20423;-66
2024/02/08 14:02:15;;;;;;;5.13;2.50;;;15.80;61.70;;;;;;5045693;28;20439;-66
2024/02/08 14:04:54;;;;;;;7.00;2.17;;;15.90;62.60;;;;;;5041491;28;20539;-64
2024/02/08 14:07:25;;;;;;;10.90;2.70;;;16.20;62.30;;;;;;5039440;28;20483;-67
2024/02/08 14:09:58;;;;;;;12.60;3.60;;;16.00;61.70;;;;;;5042699;28;20470;-65
2024/02/08 14:12:25;;;;;;;8.63;2.50;;;16.10;61.70;;;;;;5038964;28;20505;-68
2024/02/08 14:14:54;;;;;;;6.60;2.27;;;15.90;61.90;;;;;;5036044;28;20470;-64
2024/02/08 14:17:27;;;;;;;7.13;3.10;;;15.90;61.90;;;;;;5034452;28;20502;-63
2024/02/08 14:19:55;;;;;;;9.27;2.53;;;15.80;62.00;;;;;;5049369;28;20427;-67
2024/02/08 14:22:24;;;;;;;10.20;2.13;;;15.70;62.00;;;;;;5040203;28;20515;-66
2024/02/08 14:24:52;;;;;;;10.50;2.57;;;15.80;62.60;;;;;;5038203;28;20849;-68
2024/02/08 14:27:19;;;;;;;5.97;2.73;;;15.90;61.60;;;;;;5030292;28;20466;-68
2024/02/08 14:29:44;;;;;;;9.63;3.07;;;15.90;62.20;;;;;;5041808;28;20462;-64
2024/02/08 14:32:13;;;;;;;10.60;3.00;;;16.00;62.00;;;;;;5038053;28;20516;-66
2024/02/08 14:34:39;;;;;;;11.90;2.90;;;16.10;62.20;;;;;;5041396;28;20189;-68
2024/02/08 14:37:07;;;;;;;14.33;2.70;;;16.30;62.00;;;;;;5039035;28;20454;-69
2024/02/08 14:39:34;;;;;;;6.43;3.33;;;16.40;61.30;;;;;;5037989;28;20792;-65
2024/02/08 14:42:00;;;;;;;8.80;2.73;;;16.40;60.50;;;;;;5036095;28;20946;-65
2024/02/08 14:44:31;;;;;;;5.30;2.33;;;16.20;60.70;;;;;;5039983;28;20446;-65
2024/02/08 14:47:00;;;;;;;8.43;2.60;;;16.20;61.40;;;;;;5044509;28;20287;-68
2024/02/08 14:49:28;;;;;;;6.67;2.90;;;16.10;61.20;;;;;;5041901;28;20468;-65
2024/02/08 14:52:00;;;;;;;8.63;2.70;;;16.30;61.10;;;;;;5036977;28;20446;-76
2024/02/08 14:54:26;;;;;;;7.47;2.67;;;16.20;61.00;;;;;;5045566;28;20519;-64
2024/02/08 14:57:04;;;;;;;8.70;3.57;;;16.10;61.60;;;;;;5042545;28;20536;-65
2024/02/08 14:59:49;;;;;;;9.43;3.50;;;16.00;61.50;;;;;;5038321;28;20192;-65
2024/02/08 15:02:18;;;;;;;11.83;3.60;;;16.00;61.50;;;;;;5038273;28;20601;-64
2024/02/08 15:04:45;;;;;;;14.43;3.57;;;16.00;61.20;;;;;;5038314;28;20576;-71
2024/02/08 15:09:58;;;;;;;9.80;2.90;;;15.80;61.70;;;;;;5043499;28;20540;-64
2024/02/08 15:14:55;;;;;;;17.20;3.80;;;15.70;62.00;;;;;;5039730;28;20193;-71
2024/02/08 15:17:23;;;;;;;13.30;2.70;;;15.80;62.30;;;;;;5047199;28;20990;-63
2024/02/08 15:19:52;;;;;;;8.10;3.43;;;15.70;61.80;;;;;;5036137;28;21017;-64
2024/02/08 15:25:17;;;;;;;11.63;4.80;;;16.10;61.60;;;;;;5039512;28;20513;-69